Time;durP1;ratioP1;P1;durP2;ratioP2;P2;SDS_P1;SDS_P2;PMS_P1;PMS_P2;Temp;Humidity;BMP_temperature;BMP_pressure;BME280_temperature;BME280_humidity;BME280_pressure;Samples;Min_cycle;Max_cycle;Signal;HPM_P1;HPM_P2
2021/08/18 00:00:46;;;;;;;7.90;4.95;;;15.10;97.60;;;;;;4974011;28;20043;-52
2021/08/18 00:03:14;;;;;;;9.63;4.82;;;15.10;97.60;;;;;;4961243;28;20038;-50
2021/08/18 00:05:40;;;;;;;10.80;5.22;;;15.10;97.70;;;;;;4957175;28;20050;-52
2021/08/18 00:08:08;;;;;;;9.07;5.35;;;15.10;97.70;;;;;;4973765;28;20074;-51
2021/08/18 00:10:35;;;;;;;10.25;4.95;;;15.10;97.70;;;;;;4973644;28;20055;-48
2021/08/18 00:13:03;;;;;;;8.40;5.40;;;15.10;97.70;;;;;;4972608;28;20503;-52
2021/08/18 00:15:28;;;;;;;9.75;4.90;;;15.10;97.70;;;;;;4974453;28;20114;-49
2021/08/18 00:17:59;;;;;;;8.10;4.80;;;15.10;97.70;;;;;;4973660;28;20118;-50
2021/08/18 00:20:27;;;;;;;9.35;4.88;;;15.10;97.70;;;;;;4972185;28;20126;-52
2021/08/18 00:22:54;;;;;;;7.53;4.80;;;15.00;97.60;;;;;;4940792;28;20054;-48
2021/08/18 00:25:20;;;;;;;8.65;4.82;;;15.00;97.60;;;;;;4956492;28;20127;-51
2021/08/18 00:27:46;;;;;;;7.15;4.90;;;15.00;97.60;;;;;;4973661;28;20446;-52
2021/08/18 00:30:12;;;;;;;10.10;5.00;;;15.00;97.60;;;;;;4973966;28;20090;-51
2021/08/18 00:32:39;;;;;;;7.25;4.25;;;14.90;97.60;;;;;;4974083;28;20042;-50
2021/08/18 00:35:08;;;;;;;9.23;4.72;;;14.90;97.60;;;;;;4967260;28;20102;-52
2021/08/18 00:37:34;;;;;;;9.73;4.57;;;14.90;97.60;;;;;;4973523;28;20419;-50
2021/08/18 00:39:59;;;;;;;6.82;4.22;;;14.80;97.60;;;;;;4967878;28;20043;-50
2021/08/18 00:42:25;;;;;;;8.90;4.80;;;14.80;97.70;;;;;;4972578;28;20039;-50
2021/08/18 00:44:56;;;;;;;9.70;5.22;;;14.80;97.70;;;;;;4979332;28;20038;-50
2021/08/18 00:47:24;;;;;;;8.27;4.78;;;14.80;97.70;;;;;;4966156;28;20038;-50
2021/08/18 00:49:49;;;;;;;12.35;5.25;;;14.80;97.70;;;;;;4981936;28;20511;-51
2021/08/18 00:52:15;;;;;;;12.35;5.22;;;14.80;97.80;;;;;;4971234;28;20041;-54
2021/08/18 00:54:41;;;;;;;9.05;5.47;;;14.80;97.80;;;;;;4971490;28;20047;-51
2021/08/18 00:57:08;;;;;;;10.70;4.68;;;14.80;97.80;;;;;;4955685;28;20049;-54
2021/08/18 00:59:34;;;;;;;7.90;5.05;;;14.80;97.80;;;;;;4970164;28;20498;-54
2021/08/18 01:02:01;;;;;;;7.40;4.80;;;14.80;97.80;;;;;;4971975;28;20046;-54
2021/08/18 01:04:28;;;;;;;7.50;4.80;;;14.80;97.90;;;;;;4936080;29;20101;-54
2021/08/18 01:06:55;;;;;;;6.47;4.55;;;14.80;97.90;;;;;;4951354;28;20542;-51
2021/08/18 01:09:22;;;;;;;8.30;5.10;;;14.80;97.90;;;;;;4955345;28;20053;-48
2021/08/18 01:11:51;;;;;;;7.90;4.97;;;14.80;97.90;;;;;;4972230;28;20100;-54
2021/08/18 01:14:18;;;;;;;12.05;4.85;;;14.80;98.00;;;;;;4972150;28;20050;-50
2021/08/18 01:16:46;;;;;;;7.28;5.00;;;14.80;98.00;;;;;;4972636;28;20381;-52
2021/08/18 01:19:13;;;;;;;8.75;5.10;;;14.90;98.00;;;;;;4972019;28;20393;-51
2021/08/18 01:21:40;;;;;;;10.23;4.80;;;14.90;98.00;;;;;;4970608;28;20058;-48
2021/08/18 01:24:08;;;;;;;8.48;4.63;;;14.90;98.10;;;;;;4967083;28;20035;-49
2021/08/18 01:26:36;;;;;;;9.75;5.00;;;14.90;98.10;;;;;;4959090;28;20488;-50
2021/08/18 01:29:03;;;;;;;8.10;4.90;;;14.90;98.10;;;;;;4977146;28;20043;-49
2021/08/18 01:31:28;;;;;;;10.65;5.00;;;14.90;98.10;;;;;;4987060;28;20565;-51
2021/08/18 01:33:57;;;;;;;9.98;5.30;;;14.90;98.30;;;;;;4970821;28;20074;-52
2021/08/18 01:36:26;;;;;;;8.47;4.73;;;14.90;98.10;;;;;;4947673;28;20043;-52
2021/08/18 01:38:52;;;;;;;9.05;4.75;;;15.00;98.10;;;;;;4980088;28;20289;-53
2021/08/18 01:41:17;;;;;;;9.10;4.60;;;14.90;98.00;;;;;;4972842;28;20149;-52
2021/08/18 01:43:43;;;;;;;10.68;4.72;;;14.90;98.00;;;;;;4972636;28;20046;-53
2021/08/18 01:46:10;;;;;;;8.85;4.70;;;15.00;98.30;;;;;;4973277;28;20089;-50
2021/08/18 01:48:37;;;;;;;9.38;5.18;;;15.00;98.00;;;;;;4956494;28;20066;-53
2021/08/18 01:51:06;;;;;;;9.50;5.22;;;15.00;98.00;;;;;;4975726;28;20463;-51
2021/08/18 01:53:43;;;;;;;9.35;5.13;;;15.00;98.00;;;;;;4943035;28;20070;-53
2021/08/18 01:56:12;;;;;;;9.38;5.15;;;15.00;98.10;;;;;;4957327;28;20066;-49
2021/08/18 01:58:38;;;;;;;10.50;5.00;;;15.00;98.10;;;;;;4940305;28;20042;-49
2021/08/18 02:01:10;;;;;;;10.02;5.10;;;15.00;98.10;;;;;;4971765;28;20529;-49
2021/08/18 02:03:37;;;;;;;;;;;15.00;98.00;;;;;;4972915;28;20043;-51
2021/08/18 02:06:03;;;;;;;8.38;4.78;;;15.00;98.20;;;;;;4939481;29;19949;-49
2021/08/18 02:08:29;;;;;;;8.77;5.15;;;15.00;98.00;;;;;;4972709;28;20147;-49
2021/08/18 02:10:55;;;;;;;8.68;4.90;;;15.00;98.00;;;;;;4982033;28;20487;-48
2021/08/18 02:13:22;;;;;;;7.45;4.60;;;15.00;97.90;;;;;;4974658;28;20511;-52
2021/08/18 02:15:48;;;;;;;8.30;4.63;;;15.00;97.90;;;;;;4954418;28;20035;-52
2021/08/18 02:18:17;;;;;;;8.80;4.72;;;14.90;97.80;;;;;;4988539;28;20046;-51
2021/08/18 02:20:47;;;;;;;7.82;4.03;;;14.90;97.80;;;;;;4957234;28;20073;-51
2021/08/18 02:23:14;;;;;;;9.05;4.53;;;14.90;97.70;;;;;;4938816;28;20508;-49
2021/08/18 02:25:42;;;;;;;8.45;4.25;;;14.90;97.70;;;;;;4962991;28;20503;-51
2021/08/18 02:28:08;;;;;;;9.10;4.68;;;14.80;97.70;;;;;;4950311;28;20050;-49
2021/08/18 02:30:35;;;;;;;7.55;4.10;;;14.80;97.70;;;;;;4958689;28;20101;-53
2021/08/18 02:33:01;;;;;;;9.35;4.00;;;14.80;97.70;;;;;;4940768;28;20051;-49
2021/08/18 02:35:27;;;;;;;10.05;4.47;;;14.80;97.70;;;;;;4991631;28;20786;-49
2021/08/18 02:37:55;;;;;;;9.90;4.68;;;14.70;97.60;;;;;;4963448;28;20039;-48
2021/08/18 02:40:22;;;;;;;11.30;4.78;;;14.70;97.60;;;;;;4970796;28;20066;-52
2021/08/18 02:42:50;;;;;;;9.30;4.45;;;14.70;97.60;;;;;;4978137;28;20051;-52
2021/08/18 02:45:18;;;;;;;13.13;4.28;;;14.70;97.60;;;;;;4972228;28;20129;-52
2021/08/18 02:47:44;;;;;;;8.80;4.07;;;14.70;97.70;;;;;;4978800;28;20047;-49
2021/08/18 02:50:12;;;;;;;7.38;4.28;;;14.70;97.70;;;;;;4976000;28;20069;-48
2021/08/18 02:52:38;;;;;;;11.57;4.47;;;14.70;97.70;;;;;;4985140;28;20085;-51
2021/08/18 02:55:04;;;;;;;9.68;4.40;;;14.70;97.70;;;;;;4975026;28;20047;-49
2021/08/18 02:57:31;;;;;;;9.98;4.28;;;14.70;97.70;;;;;;4983373;28;20046;-50
2021/08/18 02:59:56;;;;;;;6.60;4.18;;;14.70;97.70;;;;;;4978920;28;20443;-52
2021/08/18 03:02:23;;;;;;;9.15;4.70;;;14.70;97.70;;;;;;4976650;28;20078;-49
2021/08/18 03:04:49;;;;;;;8.90;4.40;;;14.70;97.70;;;;;;4979252;28;20101;-49
2021/08/18 03:07:15;;;;;;;8.98;4.30;;;14.70;97.70;;;;;;4968892;28;20436;-53
2021/08/18 03:09:40;;;;;;;8.50;4.03;;;14.70;97.70;;;;;;4979368;28;20042;-48
2021/08/18 03:12:07;;;;;;;8.48;4.60;;;14.70;97.70;;;;;;4961566;28;20038;-52
2021/08/18 03:14:33;;;;;;;6.40;4.05;;;14.70;97.70;;;;;;4973791;28;20492;-52
2021/08/18 03:16:59;;;;;;;11.63;4.70;;;14.70;97.70;;;;;;4977797;28;20109;-52
2021/08/18 03:19:25;;;;;;;8.85;4.32;;;14.70;97.70;;;;;;4965570;28;20470;-49
2021/08/18 03:21:51;;;;;;;9.35;4.43;;;14.80;97.60;;;;;;4974819;28;20046;-49
2021/08/18 03:24:17;;;;;;;10.70;4.38;;;14.80;97.60;;;;;;4974920;28;20534;-52
2021/08/18 03:26:43;;;;;;;10.32;4.57;;;14.90;97.60;;;;;;4962892;28;20047;-52
2021/08/18 03:29:09;;;;;;;10.40;4.82;;;14.80;97.50;;;;;;4974768;28;20070;-49
2021/08/18 03:31:35;;;;;;;9.73;4.88;;;14.80;97.50;;;;;;4977743;28;20043;-49
2021/08/18 03:34:00;;;;;;;10.40;5.03;;;14.80;97.70;;;;;;4969638;28;20050;-49
2021/08/18 03:36:28;;;;;;;11.77;4.45;;;14.80;97.50;;;;;;4934505;29;20058;-49
2021/08/18 03:38:55;;;;;;;7.85;4.40;;;14.90;97.60;;;;;;4929216;28;20036;-49
2021/08/18 03:41:23;;;;;;;7.70;4.55;;;14.90;97.60;;;;;;4973173;28;20412;-49
2021/08/18 03:43:50;;;;;;;9.77;4.85;;;14.80;97.60;;;;;;4959851;28;20074;-52
2021/08/18 03:46:15;;;;;;;8.93;5.38;;;14.90;97.70;;;;;;4965051;28;20118;-49
2021/08/18 03:48:41;;;;;;;10.60;4.82;;;14.90;97.70;;;;;;4966191;28;20078;-51
2021/08/18 03:51:07;;;;;;;8.18;4.80;;;14.90;97.70;;;;;;4957919;28;20043;-50
2021/08/18 03:53:32;;;;;;;12.43;5.85;;;14.90;97.80;;;;;;4956743;28;20440;-50
2021/08/18 03:55:58;;;;;;;8.35;5.22;;;14.90;97.70;;;;;;4957997;28;20047;-52
2021/08/18 03:58:24;;;;;;;9.52;5.18;;;14.90;97.80;;;;;;4959501;28;20039;-52
2021/08/18 04:00:50;;;;;;;11.48;5.03;;;14.90;97.70;;;;;;4972245;28;20050;-51
2021/08/18 04:03:15;;;;;;;10.85;5.40;;;14.90;97.70;;;;;;4958721;28;20047;-52
2021/08/18 04:05:41;;;;;;;9.63;5.47;;;14.90;97.70;;;;;;4970576;28;20046;-53
2021/08/18 04:08:08;;;;;;;10.00;5.30;;;14.90;97.70;;;;;;4965479;28;20109;-50
2021/08/18 04:10:35;;;;;;;10.55;5.03;;;14.90;97.70;;;;;;4968308;28;20039;-50
2021/08/18 04:13:02;;;;;;;9.68;5.13;;;14.90;97.60;;;;;;4948395;28;20043;-51
2021/08/18 04:15:37;;;;;;;9.43;5.18;;;14.90;97.60;;;;;;4960395;28;20237;-51
2021/08/18 04:18:04;;;;;;;12.18;4.68;;;14.90;97.50;;;;;;4986781;28;20112;-49
2021/08/18 04:20:32;;;;;;;11.00;5.15;;;14.90;97.50;;;;;;4924902;29;20078;-51
2021/08/18 04:22:58;;;;;;;8.23;4.75;;;15.00;97.40;;;;;;4972696;28;20116;-50
2021/08/18 04:25:25;;;;;;;7.63;4.38;;;15.00;97.40;;;;;;4966905;28;20066;-52
2021/08/18 04:27:52;;;;;;;8.40;4.40;;;15.00;97.30;;;;;;4981858;28;20066;-50
2021/08/18 04:30:18;;;;;;;8.35;4.50;;;15.00;97.20;;;;;;4969295;28;20086;-49
2021/08/18 04:32:44;;;;;;;9.73;4.63;;;15.00;97.10;;;;;;4974259;28;20607;-50
2021/08/18 04:35:12;;;;;;;8.95;3.60;;;15.00;97.00;;;;;;4971338;28;20416;-48
2021/08/18 04:37:38;;;;;;;8.90;4.35;;;15.00;96.90;;;;;;4949479;28;20096;-48
2021/08/18 04:40:06;;;;;;;7.43;4.07;;;15.00;96.80;;;;;;4982944;28;20043;-49
2021/08/18 04:42:37;;;;;;;7.90;4.43;;;15.00;96.80;;;;;;4956984;28;20038;-48
2021/08/18 04:45:06;;;;;;;8.52;4.60;;;15.00;96.70;;;;;;4971807;28;20038;-48
2021/08/18 04:47:31;;;;;;;7.95;4.30;;;15.00;96.70;;;;;;4980263;28;20078;-48
2021/08/18 04:49:57;;;;;;;8.32;4.15;;;15.00;96.50;;;;;;4984599;28;20512;-51
2021/08/18 04:52:23;;;;;;;8.13;4.18;;;15.00;96.40;;;;;;4972350;28;20519;-49
2021/08/18 04:54:49;;;;;;;6.72;4.22;;;15.00;96.40;;;;;;4986599;28;20685;-51
2021/08/18 04:57:15;;;;;;;9.73;4.70;;;14.90;96.30;;;;;;4956350;28;20039;-49
2021/08/18 04:59:42;;;;;;;8.98;4.60;;;14.90;96.20;;;;;;4961553;28;20039;-53
2021/08/18 05:02:09;;;;;;;11.05;5.25;;;15.00;96.20;;;;;;4945544;28;20042;-52
2021/08/18 05:04:35;;;;;;;7.97;4.60;;;15.00;96.20;;;;;;4973975;28;20042;-51
2021/08/18 05:07:00;;;;;;;7.03;4.25;;;15.00;96.20;;;;;;4962956;28;20122;-48
2021/08/18 05:09:26;;;;;;;9.63;4.53;;;15.00;96.20;;;;;;4968930;28;20031;-48
2021/08/18 05:11:54;;;;;;;10.80;4.68;;;15.00;96.20;;;;;;4976762;28;20483;-50
2021/08/18 05:14:19;;;;;;;9.02;4.60;;;15.00;96.40;;;;;;4967633;28;20058;-54
2021/08/18 05:16:45;;;;;;;8.80;4.47;;;15.00;96.20;;;;;;4961873;28;20057;-51
2021/08/18 05:19:12;;;;;;;7.93;4.60;;;15.00;96.20;;;;;;4967153;28;20043;-50
2021/08/18 05:21:38;;;;;;;8.00;4.57;;;15.00;96.20;;;;;;4969609;28;20048;-51
2021/08/18 05:24:06;;;;;;;11.88;5.03;;;15.00;96.50;;;;;;4965286;28;20051;-50
2021/08/18 05:26:35;;;;;;;10.98;4.68;;;15.10;96.30;;;;;;4946824;28;20094;-51
2021/08/18 05:29:07;;;;;;;9.93;4.78;;;15.00;96.20;;;;;;4959640;28;20046;-51
2021/08/18 05:31:41;;;;;;;7.65;4.68;;;15.10;96.30;;;;;;4957496;28;20054;-50
2021/08/18 05:34:16;;;;;;;9.23;4.80;;;15.00;96.20;;;;;;4959775;28;20327;-50
2021/08/18 05:37:02;;;;;;;10.02;5.10;;;15.00;96.20;;;;;;4956727;28;20046;-48
2021/08/18 05:39:28;;;;;;;9.77;4.57;;;15.00;96.20;;;;;;4973368;28;20045;-50
2021/08/18 05:41:53;;;;;;;8.55;4.95;;;15.00;96.30;;;;;;4971224;28;20407;-50
2021/08/18 05:44:22;;;;;;;9.75;5.00;;;15.00;96.30;;;;;;4964172;28;20049;-53
2021/08/18 05:46:54;;;;;;;10.15;5.30;;;15.10;96.50;;;;;;4979086;28;20050;-51
2021/08/18 05:49:20;;;;;;;9.88;5.63;;;15.00;96.50;;;;;;4975462;28;20050;-52
2021/08/18 05:51:50;;;;;;;10.70;5.38;;;15.00;96.60;;;;;;4981119;28;20125;-53
2021/08/18 05:54:16;;;;;;;14.25;6.20;;;15.00;96.70;;;;;;4972854;28;20531;-51
2021/08/18 05:56:42;;;;;;;12.65;5.60;;;15.00;96.80;;;;;;4982299;28;20030;-51
2021/08/18 05:59:07;;;;;;;9.07;5.75;;;15.00;96.90;;;;;;4971044;28;20046;-54
2021/08/18 06:01:33;;;;;;;12.20;5.85;;;15.00;97.00;;;;;;4983912;28;20518;-51
2021/08/18 06:03:59;;;;;;;13.25;6.35;;;15.00;97.00;;;;;;4983233;28;20125;-50
2021/08/18 06:06:24;;;;;;;11.00;6.13;;;15.00;97.10;;;;;;4938353;28;20077;-52
2021/08/18 06:08:50;;;;;;;13.07;6.13;;;15.00;97.20;;;;;;4973364;28;20531;-48
2021/08/18 06:11:15;;;;;;;11.32;6.45;;;15.00;97.30;;;;;;4970669;28;20057;-48
2021/08/18 06:13:42;;;;;;;12.35;6.10;;;15.00;97.30;;;;;;4956601;28;20043;-53
2021/08/18 06:16:08;;;;;;;12.95;6.32;;;15.10;97.50;;;;;;4951983;28;20514;-52
2021/08/18 06:18:34;;;;;;;11.93;5.88;;;15.00;97.50;;;;;;4971972;28;20046;-48
2021/08/18 06:20:59;;;;;;;14.40;6.82;;;15.10;97.60;;;;;;4971217;28;20467;-52
2021/08/18 06:23:26;;;;;;;12.57;6.75;;;15.10;97.70;;;;;;4968990;28;20420;-51
2021/08/18 06:25:53;;;;;;;13.25;6.47;;;15.10;97.70;;;;;;4975942;28;20391;-54
2021/08/18 06:28:20;;;;;;;15.55;6.57;;;15.10;97.70;;;;;;4973870;28;20031;-53
2021/08/18 06:30:45;;;;;;;15.27;6.97;;;15.20;97.80;;;;;;4966270;28;20039;-54
2021/08/18 06:33:11;;;;;;;13.32;6.40;;;15.10;97.80;;;;;;4964954;28;20050;-54
2021/08/18 06:35:37;;;;;;;12.73;6.63;;;15.20;97.90;;;;;;4966951;28;20506;-49
2021/08/18 06:38:03;;;;;;;13.85;6.30;;;15.20;97.90;;;;;;4968796;28;20047;-51
2021/08/18 06:40:28;;;;;;;12.45;6.78;;;15.20;98.00;;;;;;4968629;28;20069;-49
2021/08/18 06:42:54;;;;;;;12.40;6.40;;;15.20;98.10;;;;;;4970366;28;20035;-51
2021/08/18 06:45:21;;;;;;;13.35;7.10;;;15.20;98.00;;;;;;4970730;28;20045;-49
2021/08/18 06:47:47;;;;;;;16.58;6.38;;;15.30;98.20;;;;;;4955224;28;20050;-49
2021/08/18 06:50:13;;;;;;;12.02;6.20;;;15.30;98.20;;;;;;4931263;28;20047;-48
2021/08/18 06:52:40;;;;;;;10.48;5.75;;;15.40;98.30;;;;;;4953422;28;20070;-52
2021/08/18 06:55:07;;;;;;;14.73;6.20;;;15.40;98.30;;;;;;4960529;28;20507;-52
2021/08/18 06:57:33;;;;;;;10.88;6.20;;;15.50;98.40;;;;;;4962159;28;20186;-54
2021/08/18 06:59:58;;;;;;;14.30;5.78;;;15.60;98.40;;;;;;4953228;28;20117;-49
2021/08/18 07:02:25;;;;;;;13.25;6.30;;;15.60;98.40;;;;;;4965452;28;20054;-54
2021/08/18 07:04:52;;;;;;;12.32;6.05;;;15.70;98.40;;;;;;4945774;28;20518;-50
2021/08/18 07:07:18;;;;;;;9.73;5.75;;;15.70;98.40;;;;;;4954101;28;20043;-54
2021/08/18 07:09:46;;;;;;;11.73;5.60;;;15.80;98.40;;;;;;4970106;28;20563;-51
2021/08/18 07:12:12;;;;;;;10.55;5.57;;;15.90;98.40;;;;;;4937917;28;20129;-52
2021/08/18 07:14:38;;;;;;;12.65;5.68;;;15.90;98.40;;;;;;4976504;28;20041;-49
2021/08/18 07:17:04;;;;;;;15.32;5.80;;;15.90;98.30;;;;;;4971433;28;20039;-52
2021/08/18 07:19:32;;;;;;;13.07;6.10;;;16.00;98.40;;;;;;4953980;28;20043;-48
2021/08/18 07:21:57;;;;;;;9.45;5.18;;;16.00;98.40;;;;;;4941522;28;20101;-52
2021/08/18 07:24:24;;;;;;;10.45;5.40;;;16.10;98.40;;;;;;4965508;28;20030;-50
2021/08/18 07:26:52;;;;;;;13.02;5.50;;;16.10;98.30;;;;;;4954706;28;20053;-50
2021/08/18 07:29:18;;;;;;;9.95;5.47;;;16.10;98.30;;;;;;4973810;28;20050;-55
2021/08/18 07:31:43;;;;;;;12.00;4.90;;;16.10;98.30;;;;;;4972204;28;20550;-52
2021/08/18 07:34:09;;;;;;;11.38;5.50;;;16.20;98.20;;;;;;4970428;28;20134;-51
2021/08/18 07:36:35;;;;;;;11.95;5.43;;;16.20;98.20;;;;;;4954221;28;20063;-52
2021/08/18 07:39:00;;;;;;;10.70;5.03;;;16.20;98.10;;;;;;4971410;28;20495;-55
2021/08/18 07:41:28;;;;;;;13.98;5.43;;;16.20;98.10;;;;;;4971927;28;20045;-55
2021/08/18 07:43:54;;;;;;;11.68;5.13;;;16.20;98.00;;;;;;4973681;28;20070;-55
2021/08/18 07:46:19;;;;;;;10.68;5.30;;;16.30;98.00;;;;;;4972218;28;20042;-54
2021/08/18 07:48:46;;;;;;;9.32;4.75;;;16.30;98.00;;;;;;4973154;28;20538;-55
2021/08/18 07:51:14;;;;;;;10.85;5.35;;;16.30;97.90;;;;;;4955428;28;20042;-56
2021/08/18 07:53:41;;;;;;;10.18;4.95;;;16.30;97.90;;;;;;4956430;28;20047;-55
2021/08/18 07:56:08;;;;;;;8.88;4.88;;;16.30;97.90;;;;;;4973296;28;20034;-51
2021/08/18 07:58:35;;;;;;;13.55;4.68;;;16.30;97.90;;;;;;4925185;28;20043;-50
2021/08/18 08:01:01;;;;;;;12.40;5.43;;;16.30;97.90;;;;;;4968155;28;20046;-53
2021/08/18 08:03:27;;;;;;;8.43;5.22;;;16.40;97.90;;;;;;4972565;28;20423;-51
2021/08/18 08:05:53;;;;;;;9.73;5.13;;;16.40;97.80;;;;;;4973055;28;20045;-49
2021/08/18 08:08:20;;;;;;;9.32;5.00;;;16.50;97.80;;;;;;4920699;28;23294;-54
2021/08/18 08:10:53;;;;;;;7.80;4.47;;;16.50;97.80;;;;;;4917889;28;20113;-50
2021/08/18 08:13:21;;;;;;;8.98;4.80;;;16.50;97.70;;;;;;4930305;28;20046;-50
2021/08/18 08:15:46;;;;;;;10.30;4.65;;;16.70;97.70;;;;;;4965683;28;20038;-52
2021/08/18 08:18:12;;;;;;;7.78;4.40;;;16.70;97.50;;;;;;4964941;28;20126;-56
2021/08/18 08:20:42;;;;;;;8.52;4.40;;;16.70;97.30;;;;;;4968084;28;20046;-52
2021/08/18 08:23:08;;;;;;;9.55;4.25;;;16.80;97.30;;;;;;4964278;28;20043;-55
2021/08/18 08:25:35;;;;;;;9.85;4.70;;;16.80;97.20;;;;;;4964828;28;20453;-54
2021/08/18 08:28:01;;;;;;;6.75;4.00;;;16.80;97.00;;;;;;4929139;29;20051;-55
2021/08/18 08:30:27;;;;;;;9.18;4.55;;;16.80;96.90;;;;;;4964825;28;20073;-53
2021/08/18 08:32:53;;;;;;;9.75;4.10;;;16.80;96.80;;;;;;4956127;28;20461;-49
2021/08/18 08:35:19;;;;;;;10.73;4.18;;;16.80;96.80;;;;;;4965558;28;20098;-51
2021/08/18 08:37:45;;;;;;;10.90;4.80;;;16.80;96.70;;;;;;4965876;28;20444;-55
2021/08/18 08:40:11;;;;;;;9.88;4.78;;;16.80;96.60;;;;;;4965767;28;20054;-53
2021/08/18 08:42:39;;;;;;;8.23;4.63;;;16.80;96.60;;;;;;4966814;28;20199;-49
2021/08/18 08:45:06;;;;;;;12.25;5.07;;;16.80;96.70;;;;;;4943934;28;20559;-51
2021/08/18 08:47:34;;;;;;;10.23;4.90;;;16.80;96.70;;;;;;4970446;28;20042;-51
2021/08/18 08:50:01;;;;;;;7.97;4.32;;;16.80;96.70;;;;;;4971695;28;20077;-55
2021/08/18 08:52:27;;;;;;;9.05;4.30;;;16.80;96.60;;;;;;4970499;28;20126;-54
2021/08/18 08:54:53;;;;;;;9.13;4.00;;;16.90;96.60;;;;;;4969777;28;20117;-52
2021/08/18 08:57:20;;;;;;;8.95;4.85;;;16.90;96.40;;;;;;4971344;28;20039;-52
2021/08/18 08:59:48;;;;;;;9.18;4.30;;;17.00;96.20;;;;;;4938883;28;20101;-54
2021/08/18 09:02:15;;;;;;;7.03;4.57;;;17.00;96.20;;;;;;4963696;28;20450;-53
2021/08/18 09:04:46;;;;;;;8.93;4.70;;;17.00;96.20;;;;;;4947346;28;20247;-52
2021/08/18 09:07:17;;;;;;;8.27;4.68;;;17.10;96.30;;;;;;4964599;28;20252;-53
2021/08/18 09:10:06;;;;;;;6.85;4.00;;;17.20;96.30;;;;;;4947240;28;20070;-49
2021/08/18 09:15:20;;;;;;;7.40;4.35;;;17.20;95.90;;;;;;5282005;23;20106;-50
2021/08/18 09:17:48;;;;;;;8.77;4.25;;;17.20;95.70;;;;;;4959055;28;20070;-51
2021/08/18 09:20:27;;;;;;;9.60;4.50;;;17.30;95.50;;;;;;4963506;28;20030;-52
2021/08/18 09:22:59;;;;;;;7.72;4.22;;;17.40;95.50;;;;;;4956416;28;20046;-54
2021/08/18 09:25:28;;;;;;;6.23;4.20;;;17.40;95.50;;;;;;4958154;28;20566;-54
2021/08/18 09:28:13;;;;;;;7.82;4.78;;;17.40;95.50;;;;;;4959676;28;20718;-50
2021/08/18 09:30:42;;;;;;;7.38;4.68;;;17.50;95.60;;;;;;4957133;28;20059;-53
2021/08/18 09:33:11;;;;;;;6.97;4.88;;;17.50;95.30;;;;;;4960227;28;20039;-53
2021/08/18 09:35:37;;;;;;;8.63;5.00;;;17.50;95.30;;;;;;4957290;28;20129;-52
2021/08/18 09:38:05;;;;;;;7.03;5.13;;;17.60;95.40;;;;;;4971638;28;20042;-52
2021/08/18 09:40:35;;;;;;;9.07;5.40;;;17.60;95.60;;;;;;4956405;28;20605;-49
2021/08/18 09:43:24;;;;;;;9.07;5.07;;;17.60;95.40;;;;;;4952515;28;20070;-55
2021/08/18 09:45:56;;;;;;;8.63;5.40;;;17.60;95.40;;;;;;4959166;28;20149;-54
2021/08/18 09:48:25;;;;;;;9.70;4.88;;;17.60;95.20;;;;;;4964629;28;20042;-52
2021/08/18 09:50:56;;;;;;;10.27;5.38;;;17.60;95.20;;;;;;4956273;28;20047;-51
2021/08/18 09:53:27;;;;;;;7.95;5.20;;;17.60;95.10;;;;;;4958891;28;20046;-54
2021/08/18 09:56:06;;;;;;;9.50;5.40;;;17.60;95.00;;;;;;4958421;28;20042;-50
2021/08/18 09:58:36;;;;;;;9.57;5.20;;;17.60;95.00;;;;;;4956554;28;20554;-52
2021/08/18 10:01:13;;;;;;;9.98;5.72;;;17.60;95.00;;;;;;4953990;28;20448;-52
2021/08/18 10:03:40;;;;;;;11.32;5.47;;;17.60;95.00;;;;;;4967028;28;20530;-54
2021/08/18 10:06:08;;;;;;;11.55;6.10;;;17.60;94.90;;;;;;4953354;28;20058;-50
2021/08/18 10:08:35;;;;;;;10.52;6.30;;;17.70;94.90;;;;;;4966789;28;20046;-55
2021/08/18 10:11:01;;;;;;;11.20;5.55;;;17.70;95.00;;;;;;4977618;28;20047;-51
2021/08/18 10:13:27;;;;;;;10.05;6.60;;;17.80;95.00;;;;;;4984564;28;20097;-51
2021/08/18 10:15:54;;;;;;;12.07;5.88;;;17.80;95.00;;;;;;4967778;28;20126;-52
2021/08/18 10:18:37;;;;;;;9.00;5.90;;;17.90;94.70;;;;;;4968967;28;20046;-52
2021/08/18 10:21:10;;;;;;;11.90;6.43;;;18.00;94.80;;;;;;4943091;28;20078;-52
2021/08/18 10:23:59;;;;;;;9.95;5.43;;;18.00;94.70;;;;;;4957547;28;20514;-52
2021/08/18 10:26:50;;;;;;;9.27;5.75;;;18.10;94.60;;;;;;4959154;28;20049;-52
2021/08/18 10:29:30;;;;;;;7.70;5.30;;;18.20;94.20;;;;;;4970234;28;20228;-51
2021/08/18 10:32:04;;;;;;;11.32;5.78;;;18.30;93.60;;;;;;4974352;28;20136;-52
2021/08/18 10:34:35;;;;;;;9.60;5.72;;;18.30;93.40;;;;;;4971221;28;20102;-49
2021/08/18 10:37:03;;;;;;;7.88;5.18;;;18.30;93.40;;;;;;4966141;28;20100;-50
2021/08/18 10:39:41;;;;;;;7.82;5.05;;;18.40;92.50;;;;;;4961721;28;20085;-50
2021/08/18 10:42:15;;;;;;;7.47;5.03;;;18.50;92.50;;;;;;4958326;28;20093;-52
2021/08/18 10:44:48;;;;;;;11.98;4.90;;;18.50;92.30;;;;;;4960466;28;20042;-54
2021/08/18 10:47:47;;;;;;;8.88;4.63;;;18.60;92.10;;;;;;4968595;28;20423;-51
2021/08/18 10:50:13;;;;;;;7.35;4.65;;;18.60;92.20;;;;;;4968178;28;20510;-53
2021/08/18 10:52:41;;;;;;;12.98;4.35;;;18.70;92.30;;;;;;4969473;28;20050;-52
2021/08/18 10:55:25;;;;;;;5.88;3.63;;;18.80;91.90;;;;;;4949312;28;20039;-54
2021/08/18 10:57:58;;;;;;;10.10;3.70;;;18.80;90.70;;;;;;4975103;28;20636;-50
2021/08/18 11:00:37;;;;;;;7.22;3.97;;;18.90;90.70;;;;;;4973990;28;20114;-51
2021/08/18 11:03:16;;;;;;;6.07;3.78;;;18.90;90.40;;;;;;4960328;28;20043;-54
2021/08/18 11:05:46;;;;;;;5.75;3.55;;;18.90;89.80;;;;;;4961498;28;20070;-50
2021/08/18 11:08:50;;;;;;;4.00;3.30;;;18.90;90.10;;;;;;4964907;28;20046;-52
2021/08/18 11:11:16;;;;;;;5.28;3.67;;;18.90;90.40;;;;;;4965574;28;20050;-53
2021/08/18 11:13:44;;;;;;;6.55;3.45;;;18.90;90.40;;;;;;4996693;23;20409;-52
2021/08/18 11:16:26;;;;;;;4.45;3.30;;;19.00;90.20;;;;;;4974568;28;20082;-55
2021/08/18 11:18:57;;;;;;;8.57;4.13;;;19.00;89.50;;;;;;4973418;28;20042;-55
2021/08/18 11:21:29;;;;;;;6.03;3.60;;;19.00;89.90;;;;;;4971205;28;20055;-55
2021/08/18 11:23:59;;;;;;;7.85;3.70;;;19.00;90.20;;;;;;4965295;28;20121;-55
2021/08/18 11:26:27;;;;;;;7.53;4.30;;;19.10;90.20;;;;;;4969481;28;20109;-55
2021/08/18 11:29:10;;;;;;;6.90;4.53;;;19.10;90.20;;;;;;4973564;28;20101;-55
2021/08/18 11:31:50;;;;;;;8.77;5.05;;;19.20;89.30;;;;;;4962362;28;20054;-55
2021/08/18 11:34:27;;;;;;;9.02;5.10;;;19.20;90.00;;;;;;4958137;28;20452;-55
2021/08/18 11:37:02;;;;;;;7.72;5.32;;;19.20;89.00;;;;;;4972499;28;20043;-55
2021/08/18 11:39:29;;;;;;;8.30;5.00;;;19.10;89.40;;;;;;4958680;28;20063;-54
2021/08/18 11:41:55;;;;;;;8.55;5.53;;;19.10;88.20;;;;;;4966985;28;20121;-55
2021/08/18 11:44:29;;;;;;;7.95;4.85;;;19.10;88.80;;;;;;4981676;28;20857;-54
2021/08/18 11:47:05;;;;;;;8.07;4.82;;;19.20;88.80;;;;;;4955638;28;20048;-55
2021/08/18 11:49:30;;;;;;;6.60;4.55;;;19.20;89.10;;;;;;4955305;28;20484;-56
2021/08/18 11:51:56;;;;;;;9.27;4.28;;;19.30;89.50;;;;;;4964841;28;20050;-55
2021/08/18 11:54:25;;;;;;;7.38;4.50;;;19.30;89.30;;;;;;4973390;28;20035;-55
2021/08/18 11:57:01;;;;;;;5.60;4.35;;;19.30;88.80;;;;;;4991849;28;20050;-53
2021/08/18 11:59:27;;;;;;;6.43;4.68;;;19.20;88.00;;;;;;4982078;28;20122;-55
2021/08/18 12:01:54;;;;;;;6.47;4.82;;;19.20;88.20;;;;;;4963624;28;20595;-54
2021/08/18 12:04:21;;;;;;;7.03;4.70;;;19.20;88.60;;;;;;4967875;28;20079;-54
2021/08/18 12:07:03;;;;;;;7.43;4.35;;;19.20;88.90;;;;;;4985195;28;20050;-55
2021/08/18 12:09:28;;;;;;;10.93;4.60;;;19.20;88.70;;;;;;4954926;28;20054;-54
2021/08/18 12:12:06;;;;;;;6.65;3.95;;;19.30;89.30;;;;;;4970868;28;20042;-55
2021/08/18 12:14:37;;;;;;;5.65;4.38;;;19.30;88.80;;;;;;4973413;28;20050;-54
2021/08/18 12:17:03;;;;;;;9.63;4.53;;;19.50;87.90;;;;;;4976021;28;20047;-55
2021/08/18 12:19:34;;;;;;;6.50;4.30;;;19.50;87.60;;;;;;4984965;28;20410;-54
2021/08/18 12:22:24;;;;;;;6.53;4.30;;;19.60;87.90;;;;;;4987469;28;20050;-54
2021/08/18 12:24:53;;;;;;;7.03;4.72;;;19.70;88.60;;;;;;4963874;28;20062;-54
2021/08/18 12:27:24;;;;;;;7.93;5.45;;;19.80;88.50;;;;;;4976148;28;20130;-54
2021/08/18 12:30:00;;;;;;;6.90;5.50;;;19.80;87.40;;;;;;4974873;28;20460;-55
2021/08/18 12:32:26;;;;;;;7.50;5.32;;;19.70;86.20;;;;;;4970425;28;20475;-55
2021/08/18 12:35:00;;;;;;;7.47;5.05;;;19.60;87.30;;;;;;4971455;28;20051;-53
2021/08/18 12:37:28;;;;;;;6.40;4.63;;;19.60;86.70;;;;;;4975731;28;20050;-54
2021/08/18 12:39:55;;;;;;;6.85;5.07;;;19.60;87.20;;;;;;4966353;28;20570;-55
2021/08/18 12:42:22;;;;;;;7.32;5.00;;;19.60;87.60;;;;;;4980348;28;20096;-55
2021/08/18 12:45:00;;;;;;;8.52;5.38;;;19.50;87.50;;;;;;4970991;28;20491;-55
2021/08/18 12:47:31;;;;;;;7.57;5.47;;;19.50;88.30;;;;;;4986527;28;20050;-54
2021/08/18 12:49:56;;;;;;;7.10;5.18;;;19.50;88.10;;;;;;4959963;28;20141;-55
2021/08/18 12:52:22;;;;;;;8.40;5.75;;;19.40;88.50;;;;;;4973325;28;20573;-54